createdAt,value
2023-04-28T00:01:02.609Z,77.15
2023-04-28T00:04:05.486Z,78.90
2023-04-28T00:07:07.756Z,78.31
2023-04-28T00:10:10.005Z,78.26
2023-04-28T00:13:12.689Z,78.02
2023-04-28T00:16:14.494Z,78.05
2023-04-28T00:19:17.205Z,78.30
2023-04-28T00:22:19.463Z,78.74
2023-04-28T00:25:21.319Z,78.57
2023-04-28T00:28:33.641Z,78.53
2023-04-28T00:31:36.255Z,78.52
2023-04-28T00:34:38.066Z,78.96
2023-04-28T00:37:39.851Z,78.90
2023-04-28T00:40:41.929Z,79.16
2023-04-28T00:43:45.706Z,79.18
2023-04-28T00:46:47.973Z,79.39
2023-04-28T00:49:50.329Z,79.42
2023-04-28T00:52:52.662Z,79.71
2023-04-28T00:55:57.120Z,79.53
2023-04-28T00:58:59.569Z,79.94
2023-04-28T01:02:01.753Z,79.75
2023-04-28T01:05:04.156Z,80.02
2023-04-28T01:08:06.167Z,80.37
2023-04-28T01:11:10.480Z,80.09
2023-04-28T01:14:12.448Z,80.03
2023-04-28T01:17:14.759Z,80.14
2023-04-28T01:20:17.042Z,80.14
2023-04-28T01:23:19.036Z,80.31
2023-04-28T01:26:21.718Z,80.51
2023-04-28T01:29:23.704Z,80.58
2023-04-28T01:32:25.900Z,80.53
2023-04-28T01:35:28.011Z,80.74
2023-04-28T01:38:29.792Z,81.07
2023-04-28T01:41:34.466Z,81.15
2023-04-28T01:44:36.444Z,80.90
2023-04-28T01:47:38.661Z,81.43
2023-04-28T01:50:40.511Z,81.17
2023-04-28T01:53:42.727Z,81.34
2023-04-28T01:56:44.609Z,81.59
2023-04-28T01:59:47.421Z,81.98
2023-04-28T02:02:49.482Z,81.88
2023-04-28T02:05:51.355Z,82.45
2023-04-28T02:08:53.192Z,82.41
2023-04-28T02:11:55.168Z,82.02
2023-04-28T02:14:57.531Z,82.18
2023-04-28T02:17:59.381Z,82.33
2023-04-28T02:21:10.041Z,84.77
2023-04-28T02:24:11.793Z,84.58
2023-04-28T02:27:13.634Z,83.69
2023-04-28T02:30:15.673Z,82.92
2023-04-28T02:33:17.571Z,82.82
2023-04-28T02:36:19.405Z,84.15
2023-04-28T02:39:26.818Z,85.26
2023-04-28T02:42:28.605Z,83.57
2023-04-28T02:45:30.458Z,83.52
2023-04-28T02:48:35.517Z,83.32
2023-04-28T02:51:37.327Z,83.42
2023-04-28T02:54:39.229Z,83.74
2023-04-28T02:57:41.104Z,83.34
2023-04-28T03:00:42.911Z,83.76
2023-04-28T03:03:44.856Z,83.48
2023-04-28T03:06:47.030Z,83.55
2023-04-28T03:09:49.152Z,83.80
2023-04-28T03:12:50.997Z,85.78
2023-04-28T03:15:53.155Z,84.85
2023-04-28T03:18:55.303Z,84.80
2023-04-28T03:21:57.424Z,84.47
2023-04-28T03:24:59.398Z,84.69
2023-04-28T03:28:01.345Z,84.51
2023-04-28T03:31:03.570Z,84.82
2023-04-28T03:34:05.469Z,84.45
2023-04-28T03:37:07.362Z,84.45
2023-04-28T03:40:09.889Z,84.47
2023-04-28T03:43:11.843Z,84.60
2023-04-28T03:46:13.688Z,84.34
2023-04-28T03:49:15.806Z,84.56
2023-04-28T03:52:17.662Z,84.50
2023-04-28T03:55:19.444Z,84.43
2023-04-28T03:58:21.695Z,84.43
2023-04-28T04:01:24.103Z,84.27
2023-04-28T04:04:27.937Z,84.40
2023-04-28T04:07:30.001Z,85.16
2023-04-28T04:10:31.950Z,85.39
2023-04-28T04:13:33.786Z,86.53
2023-04-28T04:16:36.366Z,86.01
2023-04-28T04:19:38.097Z,86.03
2023-04-28T04:22:40.252Z,86.12
2023-04-28T04:25:42.348Z,85.50
2023-04-28T04:28:44.124Z,83.79
2023-04-28T04:31:46.099Z,76.10
2023-04-28T04:34:48.124Z,65.80
2023-04-28T04:37:49.949Z,63.85
2023-04-28T04:40:51.988Z,67.11
2023-04-28T04:43:53.976Z,67.18
2023-04-28T04:46:56.248Z,58.68
2023-04-28T04:49:58.603Z,61.73
2023-04-28T04:53:00.408Z,55.41
2023-04-28T04:56:02.749Z,50.45
2023-04-28T04:59:04.835Z,48.62
2023-04-28T05:02:06.973Z,54.42
2023-04-28T05:05:20.375Z,59.42
2023-04-28T05:08:23.372Z,63.00
2023-04-28T05:11:26.213Z,66.85
2023-04-28T05:14:28.353Z,68.50
2023-04-28T05:17:30.748Z,71.13
2023-04-28T05:20:32.969Z,70.53
2023-04-28T05:23:34.803Z,71.42
2023-04-28T05:26:36.978Z,70.65
2023-04-28T05:29:38.996Z,70.05
2023-04-28T05:32:41.094Z,69.33
2023-04-28T05:35:43.049Z,68.71
2023-04-28T05:38:45.181Z,67.39
2023-04-28T05:41:47.327Z,66.51
2023-04-28T05:44:49.285Z,66.78
2023-04-28T05:47:51.480Z,67.76
2023-04-28T05:50:53.610Z,68.54
2023-04-28T05:53:56.056Z,68.14
2023-04-28T05:57:00.121Z,68.01
2023-04-28T06:00:04.165Z,66.42
2023-04-28T06:03:07.036Z,65.85
2023-04-28T06:06:10.617Z,64.33
2023-04-28T06:09:15.076Z,63.56
2023-04-28T06:12:17.675Z,62.33
2023-04-28T06:15:20.037Z,61.06
2023-04-28T06:18:24.364Z,60.42
2023-04-28T06:21:27.401Z,59.01
2023-04-28T06:24:29.532Z,57.51
2023-04-28T06:27:33.021Z,57.11
2023-04-28T06:30:35.643Z,57.49
2023-04-28T06:33:37.558Z,54.94
2023-04-28T06:36:40.885Z,55.51
2023-04-28T06:39:43.274Z,55.19
2023-04-28T06:42:45.275Z,54.69
2023-04-28T06:45:47.373Z,54.31
2023-04-28T06:48:49.833Z,53.42
2023-04-28T06:51:52.228Z,51.71
2023-04-28T06:54:54.288Z,52.68
2023-04-28T06:57:56.356Z,52.42
2023-04-28T07:00:58.376Z,52.25
2023-04-28T07:04:01.116Z,52.12
2023-04-28T07:07:04.790Z,52.77
2023-04-28T07:10:07.659Z,52.18
2023-04-28T07:13:09.898Z,50.90
2023-04-28T07:16:12.331Z,51.29
2023-04-28T07:19:15.181Z,51.82
2023-04-28T07:22:17.744Z,50.74
2023-04-28T07:25:20.045Z,49.57
2023-04-28T07:28:22.201Z,47.56
2023-04-28T07:31:24.394Z,48.00
2023-04-28T07:34:27.563Z,47.54
2023-04-28T07:37:31.195Z,47.65
2023-04-28T07:40:34.004Z,47.19
2023-04-28T07:43:36.283Z,46.33
2023-04-28T07:46:38.303Z,46.35
2023-04-28T07:49:40.615Z,45.88
2023-04-28T07:52:43.455Z,46.46
2023-04-28T07:55:46.907Z,46.13
2023-04-28T07:58:48.940Z,45.50
2023-04-28T08:01:50.738Z,45.37
2023-04-28T08:04:52.772Z,44.51
2023-04-28T08:07:54.784Z,44.88
2023-04-28T08:10:57.313Z,43.81
2023-04-28T08:14:02.733Z,43.34
2023-04-28T08:17:04.655Z,42.98
2023-04-28T08:20:07.406Z,41.96
2023-04-28T08:23:10.015Z,41.71
2023-04-28T08:26:11.899Z,41.08
2023-04-28T08:29:13.772Z,40.97
2023-04-28T08:32:15.922Z,40.28
2023-04-28T08:35:19.296Z,38.43
2023-04-28T08:38:24.098Z,40.04
2023-04-28T08:41:29.955Z,39.11
2023-04-28T08:44:39.194Z,39.34
2023-04-28T08:47:48.215Z,36.99
2023-04-28T08:50:52.974Z,38.55
2023-04-28T08:57:01.214Z,38.69
2023-04-28T09:00:03.459Z,38.02
2023-04-28T09:03:09.123Z,37.57
2023-04-28T09:06:11.337Z,37.06
2023-04-28T09:09:32.968Z,37.92
2023-04-28T09:12:37.847Z,36.04
2023-04-28T09:15:42.907Z,36.14
2023-04-28T09:18:59.238Z,34.82
2023-04-28T09:22:10.507Z,35.21
2023-04-28T09:25:22.302Z,35.95
2023-04-28T09:28:24.267Z,34.97
2023-04-28T09:31:28.635Z,33.75
2023-04-28T09:34:45.664Z,34.62
2023-04-28T09:37:47.519Z,36.20
2023-04-28T09:40:57.131Z,35.41
2023-04-28T09:44:17.331Z,35.11
2023-04-28T09:47:25.574Z,34.50
2023-04-28T09:50:27.585Z,33.66
2023-04-28T09:53:30.315Z,34.74
2023-04-28T09:56:34.537Z,34.99
2023-04-28T09:59:37.020Z,34.19
2023-04-28T10:05:44.319Z,35.04
2023-04-28T10:08:48.320Z,34.56
2023-04-28T10:11:50.244Z,34.64
2023-04-28T10:14:54.875Z,33.84
2023-04-28T10:17:57.135Z,33.78
2023-04-28T10:21:03.202Z,33.91
2023-04-28T10:24:08.501Z,32.58
2023-04-28T10:27:10.527Z,33.82
2023-04-28T10:30:26.625Z,33.95
2023-04-28T10:33:30.727Z,33.52
2023-04-28T10:36:52.493Z,34.03
2023-04-28T10:40:31.601Z,34.75
2023-04-28T10:43:34.769Z,33.79
2023-04-28T10:47:09.445Z,32.98
2023-04-28T10:50:11.762Z,32.95
2023-04-28T10:53:13.592Z,32.83
2023-04-28T10:56:25.038Z,31.46
2023-04-28T10:59:28.409Z,31.83
2023-04-28T11:02:40.419Z,31.34
2023-04-28T11:06:28.323Z,32.08
2023-04-28T11:09:33.227Z,31.43
2023-04-28T11:12:35.018Z,31.39
2023-04-28T11:15:37.043Z,32.01
2023-04-28T11:18:54.896Z,32.04
2023-04-28T11:21:59.440Z,31.79
2023-04-28T11:25:03.053Z,31.21
2023-04-28T11:28:07.032Z,31.98
2023-04-28T11:31:13.426Z,32.72
2023-04-28T11:34:19.617Z,32.60
2023-04-28T11:37:21.663Z,32.24
2023-04-28T11:40:23.543Z,32.39
2023-04-28T11:43:43.744Z,32.11
2023-04-28T11:46:55.858Z,32.58
2023-04-28T11:49:58.131Z,34.31
2023-04-28T11:53:00.193Z,32.82
2023-04-28T11:56:08.196Z,32.63
2023-04-28T11:59:11.537Z,32.36
2023-04-28T12:02:13.890Z,33.01
2023-04-28T12:05:20.734Z,33.22
2023-04-28T12:08:29.577Z,33.67
2023-04-28T12:11:31.644Z,33.43
2023-04-28T12:15:13.589Z,33.40
2023-04-28T12:18:19.450Z,32.91
2023-04-28T12:21:21.922Z,34.16
2023-04-28T12:24:26.052Z,33.94
2023-04-28T12:27:29.083Z,33.77
2023-04-28T12:30:33.478Z,33.77
2023-04-28T12:33:39.514Z,34.57
2023-04-28T12:36:41.362Z,34.49
2023-04-28T12:39:43.697Z,34.82
2023-04-28T12:42:46.307Z,34.82
2023-04-28T12:45:48.149Z,34.69
2023-04-28T12:48:50.093Z,35.41
2023-04-28T12:51:51.951Z,34.87
2023-04-28T12:54:53.923Z,34.90
2023-04-28T12:57:55.910Z,35.33
2023-04-28T13:00:57.817Z,35.90
2023-04-28T13:03:59.917Z,35.66
2023-04-28T13:07:02.477Z,35.29
2023-04-28T13:10:04.576Z,35.36
2023-04-28T13:13:06.679Z,34.30
2023-04-28T13:16:08.800Z,34.74
2023-04-28T13:19:13.813Z,34.69
2023-04-28T13:22:16.196Z,35.02
2023-04-28T13:25:18.034Z,34.97
2023-04-28T13:28:19.849Z,35.57
2023-04-28T13:31:21.655Z,35.21
2023-04-28T13:34:23.788Z,35.84
2023-04-28T13:37:25.757Z,35.94
2023-04-28T13:40:31.251Z,36.57
2023-04-28T13:43:33.188Z,35.82
2023-04-28T13:46:35.040Z,35.94
2023-04-28T13:49:37.431Z,36.12
2023-04-28T13:52:39.898Z,36.67
2023-04-28T13:55:41.890Z,36.24
2023-04-28T13:58:43.804Z,37.03
2023-04-28T14:01:46.081Z,36.56
2023-04-28T14:04:50.602Z,36.57
2023-04-28T14:07:56.114Z,37.04
2023-04-28T14:10:58.162Z,37.17
2023-04-28T14:14:00.033Z,36.95
2023-04-28T14:17:03.359Z,36.83
2023-04-28T14:20:05.933Z,36.89
2023-04-28T14:23:08.363Z,37.34
2023-04-28T14:26:10.161Z,37.59
2023-04-28T14:29:12.315Z,37.83
2023-04-28T14:32:21.084Z,37.81
2023-04-28T14:35:23.028Z,38.29
2023-04-28T14:38:25.054Z,38.45
2023-04-28T14:41:27.403Z,37.93
2023-04-28T14:44:29.478Z,37.80
2023-04-28T14:47:31.462Z,38.72
2023-04-28T14:50:33.371Z,38.75
2023-04-28T14:53:35.698Z,39.02
2023-04-28T14:56:37.668Z,39.22
2023-04-28T14:59:39.580Z,39.67
2023-04-28T15:02:41.748Z,39.31
2023-04-28T15:05:44.051Z,39.84
2023-04-28T15:08:46.353Z,39.89
2023-04-28T15:11:49.333Z,40.01
2023-04-28T15:14:53.508Z,40.03
2023-04-28T15:18:00.644Z,39.36
2023-04-28T15:21:02.712Z,39.78
2023-04-28T15:24:04.700Z,39.89
2023-04-28T15:27:06.578Z,39.74
2023-04-28T15:30:09.529Z,39.94
2023-04-28T15:33:17.462Z,39.93
2023-04-28T15:36:20.450Z,39.84
2023-04-28T15:39:25.073Z,40.24
2023-04-28T15:42:28.553Z,40.68
2023-04-28T15:45:30.572Z,40.91
2023-04-28T15:48:33.694Z,40.46
2023-04-28T15:51:36.395Z,40.56
2023-04-28T15:54:39.632Z,40.70
2023-04-28T15:57:43.109Z,40.87
2023-04-28T16:00:46.476Z,41.18
2023-04-28T16:03:49.989Z,41.41
2023-04-28T16:06:52.973Z,41.45
2023-04-28T16:09:55.201Z,41.63
2023-04-28T16:13:08.554Z,42.51
2023-04-28T16:16:12.358Z,42.95
2023-04-28T16:19:16.184Z,43.89
2023-04-28T16:22:18.406Z,43.18
2023-04-28T16:25:20.116Z,43.09
2023-04-28T16:28:22.179Z,43.60
2023-04-28T16:31:24.038Z,44.05
2023-04-28T16:34:26.091Z,44.23
2023-04-28T16:37:29.607Z,44.65
2023-04-28T16:40:31.471Z,45.16
2023-04-28T16:43:33.442Z,46.57
2023-04-28T16:46:35.211Z,46.54
2023-04-28T16:49:36.980Z,46.62
2023-04-28T16:52:40.066Z,46.31
2023-04-28T16:55:41.885Z,46.53
2023-04-28T16:58:43.775Z,46.53
2023-04-28T17:01:47.084Z,46.65
2023-04-28T17:04:50.703Z,47.04
2023-04-28T17:07:54.748Z,47.03
2023-04-28T17:10:56.586Z,47.04
2023-04-28T17:13:59.185Z,47.13
2023-04-28T17:17:01.113Z,47.21
2023-04-28T17:20:04.843Z,47.36
2023-04-28T17:23:07.100Z,47.69
2023-04-28T17:26:08.971Z,48.11
2023-04-28T17:29:11.366Z,48.53
2023-04-28T17:32:13.660Z,49.27
2023-04-28T17:35:15.658Z,49.92
2023-04-28T17:38:17.804Z,50.30
2023-04-28T17:41:20.522Z,50.73
2023-04-28T17:44:22.660Z,50.98
2023-04-28T17:47:24.957Z,51.37
2023-04-28T17:50:27.109Z,51.77
2023-04-28T17:53:28.974Z,52.17
2023-04-28T17:56:31.106Z,52.48
2023-04-28T17:59:35.855Z,52.77
2023-04-28T18:02:38.095Z,53.13
2023-04-28T18:05:39.906Z,53.45
2023-04-28T18:08:41.935Z,53.92
2023-04-28T18:11:44.427Z,54.10
2023-04-28T18:14:46.599Z,54.95
2023-04-28T18:17:48.436Z,56.01
2023-04-28T18:20:57.182Z,56.93
2023-04-28T18:23:59.683Z,58.79
2023-04-28T18:27:02.434Z,59.07
2023-04-28T18:30:04.701Z,59.91
2023-04-28T18:33:07.967Z,60.80
2023-04-28T18:36:13.037Z,61.66
2023-04-28T18:39:15.241Z,62.74
2023-04-28T18:42:17.454Z,63.87
2023-04-28T18:45:19.514Z,64.47
2023-04-28T18:48:21.784Z,65.14
2023-04-28T18:51:24.054Z,66.11
2023-04-28T18:54:29.376Z,66.46
2023-04-28T18:57:33.629Z,67.00
2023-04-28T19:00:37.249Z,67.38
2023-04-28T19:03:41.022Z,67.82
2023-04-28T19:06:44.812Z,68.64
2023-04-28T19:09:47.218Z,68.38
2023-04-28T19:12:49.644Z,68.68
2023-04-28T19:15:56.208Z,69.17
2023-04-28T19:18:58.178Z,69.90
2023-04-28T19:22:00.991Z,69.70
2023-04-28T19:25:05.806Z,70.58
2023-04-28T19:28:08.872Z,70.61
2023-04-28T19:31:11.328Z,71.16
2023-04-28T19:34:13.989Z,71.06
2023-04-28T19:37:20.137Z,71.93
2023-04-28T19:40:22.130Z,71.73
2023-04-28T19:43:24.001Z,72.10
2023-04-28T19:46:25.856Z,72.68
2023-04-28T19:49:28.268Z,73.42
2023-04-28T19:52:30.173Z,74.96
2023-04-28T19:55:32.228Z,74.14
2023-04-28T19:58:34.294Z,74.48
2023-04-28T20:01:41.686Z,75.29
2023-04-28T20:04:43.835Z,75.05
2023-04-28T20:07:47.376Z,75.08
2023-04-28T20:10:49.164Z,76.56
2023-04-28T20:13:51.230Z,76.79
2023-04-28T20:16:53.184Z,80.63
2023-04-28T20:19:55.101Z,79.19
2023-04-28T20:22:57.004Z,79.10
2023-04-28T20:26:01.692Z,78.95
2023-04-28T20:29:04.877Z,80.29
2023-04-28T20:32:08.071Z,82.97
2023-04-28T20:35:10.292Z,83.22
2023-04-28T20:38:12.176Z,83.03
2023-04-28T20:41:14.287Z,82.77
2023-04-28T20:44:16.230Z,82.16
2023-04-28T20:47:18.074Z,84.18
2023-04-28T20:50:20.041Z,83.48
2023-04-28T20:53:22.289Z,82.47
2023-04-28T20:56:24.341Z,82.69
2023-04-28T20:59:26.373Z,83.46
2023-04-28T21:02:28.472Z,84.50
2023-04-28T21:05:30.631Z,83.66
2023-04-28T21:08:32.699Z,83.16
2023-04-28T21:11:34.553Z,83.47
2023-04-28T21:14:39.213Z,84.10
2023-04-28T21:17:41.106Z,84.38
2023-04-28T21:20:42.911Z,85.02
2023-04-28T21:23:45.886Z,86.75
2023-04-28T21:26:47.799Z,89.09
2023-04-28T21:29:49.986Z,88.46
2023-04-28T21:32:53.397Z,87.80
2023-04-28T21:35:56.325Z,88.15
2023-04-28T21:38:58.850Z,87.65
2023-04-28T21:42:00.688Z,87.83
2023-04-28T21:45:02.623Z,88.85
2023-04-28T21:48:06.364Z,88.45
2023-04-28T21:51:08.446Z,88.87
2023-04-28T21:54:10.928Z,89.26
2023-04-28T21:57:12.713Z,89.14
2023-04-28T22:00:14.992Z,90.51
2023-04-28T22:03:17.367Z,90.76
2023-04-28T22:06:20.137Z,90.04
2023-04-28T22:09:22.205Z,93.26
2023-04-28T22:12:24.172Z,92.43
2023-04-28T22:15:26.200Z,91.92
2023-04-28T22:18:28.700Z,92.11
2023-04-28T22:21:32.174Z,93.74
2023-04-28T22:24:34.507Z,94.07
2023-04-28T22:27:36.321Z,92.68
2023-04-28T22:30:38.386Z,97.79
2023-04-28T22:33:40.540Z,100.00
2023-04-28T22:36:42.805Z,98.15
2023-04-28T22:39:44.642Z,98.12
2023-04-28T22:42:46.560Z,99.28
2023-04-28T22:45:48.788Z,98.65
2023-04-28T22:48:51.027Z,96.70
2023-04-28T22:51:52.890Z,96.65
2023-04-28T22:54:54.726Z,95.53
2023-04-28T22:57:57.022Z,95.24
2023-04-28T23:01:04.208Z,94.97
2023-04-28T23:04:06.440Z,95.33
2023-04-28T23:07:08.418Z,95.13
2023-04-28T23:10:13.041Z,95.00
2023-04-28T23:13:16.545Z,96.42
2023-04-28T23:16:18.950Z,95.47
2023-04-28T23:19:21.032Z,95.54
2023-04-28T23:22:23.118Z,95.57
2023-04-28T23:25:25.403Z,95.55
2023-04-28T23:28:27.322Z,95.43
2023-04-28T23:31:30.632Z,96.37
2023-04-28T23:34:32.697Z,95.58
2023-04-28T23:37:34.528Z,95.50
2023-04-28T23:40:36.624Z,96.28
2023-04-28T23:43:38.455Z,96.09
2023-04-28T23:46:40.865Z,95.91
2023-04-28T23:49:42.896Z,96.09
2023-04-28T23:52:46.177Z,96.26
2023-04-28T23:55:48.446Z,96.44
2023-04-28T23:58:51.200Z,96.51
